Time;durP1;ratioP1;P1;durP2;ratioP2;P2;SDS_P1;SDS_P2;PMS_P1;PMS_P2;Temp;Humidity;BMP_temperature;BMP_pressure;BME280_temperature;BME280_humidity;BME280_pressure;Samples;Min_cycle;Max_cycle;Signal;HPM_P1;HPM_P2
2021/09/28 04:01:35;;;;;;;10.77;3.37;;;14.90;99.90;;;;;;5413863;23;20485;-67
2021/09/28 04:04:02;;;;;;;5.63;3.10;;;14.80;99.90;;;;;;4976093;28;20450;-66
2021/09/28 04:06:28;;;;;;;7.20;3.60;;;14.70;99.90;;;;;;4975833;28;20481;-66
2021/09/28 04:08:55;;;;;;;7.23;3.57;;;14.70;99.90;;;;;;4976200;28;20814;-67
2021/09/28 04:11:22;;;;;;;4.83;4.00;;;14.60;99.90;;;;;;4976266;28;20482;-66
2021/09/28 04:13:49;;;;;;;6.00;4.13;;;14.60;99.90;;;;;;4976742;28;20442;-67
2021/09/28 04:16:16;;;;;;;5.40;4.50;;;14.60;99.90;;;;;;4976270;28;20450;-67
2021/09/28 04:18:45;;;;;;;7.20;4.80;;;14.50;99.90;;;;;;4976273;28;20872;-67
2021/09/28 04:21:12;;;;;;;6.00;5.40;;;14.50;99.90;;;;;;4979249;28;20482;-67
2021/09/28 04:23:39;;;;;;;7.73;6.30;;;14.40;99.90;;;;;;4977963;28;20459;-67
2021/09/28 04:26:06;;;;;;;8.47;6.63;;;14.30;99.90;;;;;;4978130;28;20482;-66
2021/09/28 04:28:34;;;;;;;6.83;6.30;;;14.30;99.90;;;;;;4978661;28;20461;-68
2021/09/28 04:31:00;;;;;;;7.93;7.13;;;14.20;99.90;;;;;;4979269;28;20475;-67
2021/09/28 04:33:27;;;;;;;7.50;6.80;;;14.10;99.90;;;;;;4978553;28;20466;-67
2021/09/28 04:35:55;;;;;;;7.47;6.73;;;14.10;99.90;;;;;;4975211;28;20462;-67
2021/09/28 04:38:22;;;;;;;8.33;6.90;;;14.10;99.90;;;;;;4975725;28;20454;-67
2021/09/28 04:40:48;;;;;;;10.03;7.10;;;14.00;99.90;;;;;;4976167;28;20483;-67
2021/09/28 04:43:15;;;;;;;8.30;7.40;;;14.00;99.90;;;;;;4976003;28;20458;-67
2021/09/28 04:45:42;;;;;;;8.20;7.30;;;14.00;99.90;;;;;;4975861;28;20454;-66
2021/09/28 04:48:09;;;;;;;8.40;7.70;;;14.00;99.90;;;;;;4975611;28;20458;-66
2021/09/28 04:50:35;;;;;;;7.87;7.20;;;14.00;99.90;;;;;;4975536;28;20478;-66
2021/09/28 04:53:04;;;;;;;9.13;8.17;;;14.00;99.90;;;;;;4975285;28;20466;-66
2021/09/28 04:55:30;;;;;;;8.47;7.77;;;13.80;99.90;;;;;;4975903;28;20459;-65
2021/09/28 04:57:57;;;;;;;8.67;7.80;;;13.80;99.90;;;;;;4975810;28;20795;-66
2021/09/28 05:00:24;;;;;;;8.67;7.90;;;13.90;99.90;;;;;;4975143;28;20467;-66
2021/09/28 05:02:51;;;;;;;11.63;8.90;;;13.80;99.90;;;;;;4975452;28;20462;-66
2021/09/28 05:05:17;;;;;;;10.10;8.57;;;13.90;99.90;;;;;;4975320;28;20475;-66
2021/09/28 05:07:44;;;;;;;9.37;8.23;;;13.90;99.90;;;;;;4974991;28;21019;-67
2021/09/28 05:10:12;;;;;;;12.50;9.47;;;13.80;99.90;;;;;;4975382;28;20458;-68
2021/09/28 05:12:39;;;;;;;11.13;8.73;;;13.80;99.90;;;;;;4975317;28;20556;-66
2021/09/28 05:15:07;;;;;;;10.63;8.50;;;13.90;99.90;;;;;;4975176;28;20482;-68
2021/09/28 05:17:35;;;;;;;10.67;9.63;;;13.80;99.90;;;;;;4976366;28;20450;-67
2021/09/28 05:20:02;;;;;;;11.10;8.50;;;13.80;99.90;;;;;;4979934;28;20461;-67
2021/09/28 05:22:28;;;;;;;9.73;8.90;;;13.80;99.90;;;;;;4978994;28;20478;-67
2021/09/28 05:24:55;;;;;;;10.20;9.20;;;13.80;99.90;;;;;;4979541;28;20459;-67
2021/09/28 05:27:23;;;;;;;14.87;9.90;;;13.80;99.90;;;;;;4978956;28;20504;-65
2021/09/28 05:29:50;;;;;;;13.10;10.33;;;13.90;99.90;;;;;;4979010;28;20458;-67
2021/09/28 05:32:16;;;;;;;10.10;9.13;;;13.90;99.90;;;;;;4979033;28;20486;-66
2021/09/28 05:34:43;;;;;;;9.50;8.57;;;13.80;99.90;;;;;;4978703;28;20946;-66
2021/09/28 05:37:10;;;;;;;10.30;7.90;;;13.80;99.90;;;;;;4978832;28;20455;-65
2021/09/28 05:39:37;;;;;;;9.37;8.03;;;13.90;99.90;;;;;;4979330;28;20454;-65
2021/09/28 05:42:04;;;;;;;22.37;9.50;;;13.90;99.90;;;;;;4979127;28;20506;-66
2021/09/28 05:44:32;;;;;;;10.70;9.27;;;13.90;99.90;;;;;;4978912;28;20531;-66
2021/09/28 05:46:59;;;;;;;8.87;7.97;;;13.90;99.90;;;;;;4978962;28;20478;-66
2021/09/28 05:49:26;;;;;;;9.73;8.50;;;13.90;99.90;;;;;;4978889;28;20462;-68
2021/09/28 05:51:56;;;;;;;9.80;8.87;;;13.90;99.90;;;;;;4978803;28;20470;-66
2021/09/28 05:54:24;;;;;;;10.30;9.20;;;14.00;99.90;;;;;;4978968;28;20466;-67
2021/09/28 05:56:52;;;;;;;10.53;8.73;;;14.00;99.90;;;;;;4978627;28;20451;-67
2021/09/28 05:59:19;;;;;;;11.40;8.30;;;14.00;99.90;;;;;;4978531;28;20446;-67
2021/09/28 06:01:48;;;;;;;11.53;8.77;;;14.10;99.90;;;;;;4978319;28;20541;-67
2021/09/28 06:04:15;;;;;;;11.03;9.83;;;14.10;99.90;;;;;;4978526;28;20451;-67
2021/09/28 06:06:42;;;;;;;10.17;8.40;;;14.20;99.90;;;;;;4978143;28;20513;-67
2021/09/28 06:09:09;;;;;;;11.23;8.13;;;14.30;99.90;;;;;;4978643;28;20473;-67
2021/09/28 06:11:36;;;;;;;8.00;7.30;;;14.30;99.90;;;;;;4978249;28;20487;-67
2021/09/28 06:14:02;;;;;;;10.40;8.30;;;14.40;99.90;;;;;;4978373;28;20459;-67
2021/09/28 06:16:29;;;;;;;11.63;8.90;;;14.50;99.90;;;;;;4978167;28;20454;-67
2021/09/28 06:18:57;;;;;;;9.07;7.20;;;14.50;99.90;;;;;;4978184;28;20450;-67
2021/09/28 06:21:24;;;;;;;8.93;8.03;;;14.50;99.90;;;;;;4977877;28;20478;-68
2021/09/28 06:23:52;;;;;;;9.90;8.50;;;14.60;99.90;;;;;;4978258;28;20477;-68
2021/09/28 06:26:20;;;;;;;9.30;8.40;;;14.70;99.90;;;;;;4977958;28;20462;-67
2021/09/28 06:28:47;;;;;;;10.80;7.13;;;14.80;99.90;;;;;;4978080;28;20494;-67
2021/09/28 06:31:14;;;;;;;10.53;7.60;;;15.10;99.90;;;;;;4977679;28;20474;-67
2021/09/28 06:33:41;;;;;;;8.43;7.37;;;15.20;99.90;;;;;;4978044;28;20814;-65
2021/09/28 06:36:09;;;;;;;9.87;7.10;;;15.40;99.90;;;;;;4978740;28;20466;-66
2021/09/28 06:38:36;;;;;;;8.60;6.93;;;15.60;99.90;;;;;;4978997;28;20454;-66
2021/09/28 06:41:03;;;;;;;8.83;6.80;;;15.80;99.90;;;;;;4979027;28;20483;-68
2021/09/28 06:43:30;;;;;;;8.73;7.10;;;15.90;99.90;;;;;;4978404;28;20458;-65
2021/09/28 06:45:58;;;;;;;7.17;6.63;;;16.00;99.90;;;;;;4978086;28;20977;-64
2021/09/28 06:48:25;;;;;;;11.23;7.90;;;16.00;99.90;;;;;;4978172;28;20487;-64
2021/09/28 06:50:52;;;;;;;7.13;6.40;;;16.10;99.90;;;;;;4977871;28;20478;-69
2021/09/28 06:53:20;;;;;;;7.57;6.77;;;16.00;99.90;;;;;;4977858;28;20849;-66
2021/09/28 06:55:47;;;;;;;7.73;6.77;;;16.20;99.90;;;;;;4977947;28;20458;-66
2021/09/28 06:58:13;;;;;;;9.63;7.50;;;16.30;99.90;;;;;;4977678;28;20482;-66
2021/09/28 07:00:40;;;;;;;8.07;6.50;;;16.40;99.90;;;;;;4977497;28;20924;-66
2021/09/28 07:03:08;;;;;;;9.07;6.87;;;16.60;99.90;;;;;;4977725;28;20462;-66
2021/09/28 07:05:34;;;;;;;8.53;6.50;;;16.70;99.90;;;;;;4977353;28;20458;-66
2021/09/28 07:08:01;;;;;;;8.10;6.13;;;17.00;99.90;;;;;;4977217;28;20489;-66
2021/09/28 07:10:29;;;;;;;6.40;5.90;;;17.60;99.90;;;;;;4977266;28;20947;-67
2021/09/28 07:12:56;;;;;;;6.27;5.23;;;18.10;99.90;;;;;;4977254;28;20459;-67
2021/09/28 07:15:23;;;;;;;7.13;6.43;;;18.70;99.90;;;;;;4976841;28;20505;-67
2021/09/28 07:17:50;;;;;;;6.67;5.97;;;18.50;99.90;;;;;;4976856;28;20455;-67
2021/09/28 07:20:17;;;;;;;7.50;6.80;;;18.40;99.90;;;;;;4977766;28;20461;-67
2021/09/28 07:22:44;;;;;;;7.57;5.97;;;18.20;99.90;;;;;;4977156;28;20459;-68
2021/09/28 07:25:11;;;;;;;5.73;5.23;;;18.10;99.90;;;;;;4976924;28;20465;-67
2021/09/28 07:27:39;;;;;;;5.47;5.07;;;17.90;99.90;;;;;;4977257;28;20914;-67
2021/09/28 07:30:07;;;;;;;6.23;5.40;;;18.20;99.90;;;;;;4976959;28;20461;-67
2021/09/28 07:32:34;;;;;;;5.90;5.20;;;18.10;99.90;;;;;;4976806;28;20474;-67
2021/09/28 07:35:01;;;;;;;6.40;5.80;;;18.00;99.90;;;;;;4976588;28;20463;-67
2021/09/28 07:37:29;;;;;;;8.30;5.20;;;17.60;99.90;;;;;;4976584;28;20455;-67
2021/09/28 07:39:57;;;;;;;5.83;5.40;;;17.70;99.90;;;;;;4975989;28;20455;-67
2021/09/28 07:42:25;;;;;;;7.60;6.60;;;17.40;99.90;;;;;;4976524;28;20506;-67
2021/09/28 07:44:54;;;;;;;6.50;5.60;;;17.00;99.90;;;;;;4976626;28;20458;-67
2021/09/28 07:47:21;;;;;;;9.27;5.93;;;16.90;99.90;;;;;;4976445;28;20485;-68
2021/09/28 07:49:47;;;;;;;6.40;5.80;;;16.60;99.90;;;;;;4976742;28;20481;-69
2021/09/28 07:52:15;;;;;;;8.23;6.83;;;16.60;99.90;;;;;;4976383;28;20872;-69
2021/09/28 07:54:42;;;;;;;8.47;5.90;;;16.50;99.90;;;;;;4976312;28;20455;-69
2021/09/28 07:57:09;;;;;;;8.13;7.33;;;16.60;99.90;;;;;;4976355;28;20457;-66
2021/09/28 07:59:36;;;;;;;8.40;7.10;;;16.60;99.90;;;;;;4977195;28;20790;-65
2021/09/28 08:02:05;;;;;;;9.87;7.13;;;16.60;99.90;;;;;;4977655;28;20482;-65
2021/09/28 08:04:34;;;;;;;7.13;6.43;;;16.70;99.90;;;;;;4978400;28;20462;-67
2021/09/28 08:07:01;;;;;;;8.77;6.03;;;16.70;99.90;;;;;;4977736;28;20458;-67
2021/09/28 08:09:28;;;;;;;6.63;5.77;;;16.70;99.90;;;;;;4976567;28;20455;-68
2021/09/28 08:11:55;;;;;;;6.87;5.73;;;16.90;99.90;;;;;;4975951;28;20555;-67
2021/09/28 08:14:21;;;;;;;6.90;5.67;;;16.80;99.90;;;;;;4976215;28;20467;-67
2021/09/28 08:16:48;;;;;;;12.13;5.83;;;16.80;99.90;;;;;;4976029;28;20462;-67
2021/09/28 08:19:16;;;;;;;8.10;5.57;;;16.80;99.90;;;;;;4975884;28;20459;-67
2021/09/28 08:21:44;;;;;;;6.60;5.37;;;17.00;99.90;;;;;;4975647;28;20474;-66
2021/09/28 08:24:11;;;;;;;5.03;4.17;;;17.40;99.90;;;;;;4975922;28;20809;-66
2021/09/28 08:29:21;;;;;;;10.87;4.87;;;18.70;99.90;;;;;;4975695;28;20869;-65
2021/09/28 08:31:48;;;;;;;9.30;5.73;;;19.10;99.90;;;;;;4975865;28;20470;-66
2021/09/28 08:34:19;;;;;;;9.10;5.53;;;19.20;99.90;;;;;;4975415;28;20946;-65
2021/09/28 08:36:47;;;;;;;6.83;5.17;;;18.90;99.90;;;;;;4975545;28;20899;-66
2021/09/28 08:39:15;;;;;;;6.17;5.20;;;18.70;99.90;;;;;;4975559;28;20934;-65
2021/09/28 08:41:44;;;;;;;10.23;4.30;;;19.00;99.90;;;;;;4975475;28;20510;-66
2021/09/28 08:44:11;;;;;;;8.63;4.47;;;19.80;99.90;;;;;;4975793;28;20486;-69
2021/09/28 08:46:38;;;;;;;7.00;4.53;;;20.70;99.90;;;;;;4975714;28;20454;-68
2021/09/28 08:49:05;;;;;;;7.00;3.70;;;22.10;99.90;;;;;;4975496;28;20478;-70
2021/09/28 08:51:33;;;;;;;6.77;4.23;;;22.90;99.90;;;;;;4975624;28;20982;-70
2021/09/28 08:54:00;;;;;;;3.83;3.43;;;23.10;99.90;;;;;;4975611;28;20467;-70
2021/09/28 08:56:28;;;;;;;4.50;3.50;;;22.90;99.90;;;;;;4974895;28;20455;-70
2021/09/28 08:58:57;;;;;;;4.67;3.47;;;22.90;99.90;;;;;;4975654;28;20455;-70
2021/09/28 09:01:24;;;;;;;9.20;4.57;;;23.20;99.90;;;;;;4975090;28;20525;-69
2021/09/28 09:03:51;;;;;;;7.47;4.67;;;23.40;99.90;;;;;;4975347;28;20459;-67
2021/09/28 09:06:18;;;;;;;5.57;4.50;;;23.50;99.90;;;;;;4975445;28;20455;-68
2021/09/28 09:08:49;;;;;;;5.83;4.13;;;23.80;99.90;;;;;;4975666;28;20482;-68
2021/09/28 09:11:21;;;;;;;4.13;3.77;;;24.70;99.90;;;;;;4974856;28;20509;-71
2021/09/28 09:13:50;;;;;;;4.80;4.13;;;25.90;98.70;;;;;;4975813;28;20482;-68
2021/09/28 09:16:19;;;;;;;5.33;3.87;;;25.90;97.10;;;;;;4975301;28;20553;-67
2021/09/28 09:18:47;;;;;;;7.60;4.20;;;26.50;93.80;;;;;;4975521;28;20447;-68
2021/09/28 09:21:15;;;;;;;5.33;3.77;;;26.60;92.10;;;;;;4975306;28;20482;-67
2021/09/28 09:23:43;;;;;;;6.47;4.80;;;27.60;90.50;;;;;;4975537;28;20455;-67
2021/09/28 09:26:14;;;;;;;5.67;3.90;;;27.70;86.50;;;;;;4974899;28;20465;-67
2021/09/28 09:28:45;;;;;;;6.40;3.80;;;27.20;86.30;;;;;;4974998;28;20472;-68
2021/09/28 09:31:21;;;;;;;4.13;3.73;;;27.90;87.60;;;;;;4974920;28;20474;-68
2021/09/28 09:33:49;;;;;;;5.67;4.03;;;27.90;81.10;;;;;;4975341;28;20805;-68
2021/09/28 09:36:18;;;;;;;8.40;4.57;;;27.60;81.80;;;;;;4975384;28;20458;-67
2021/09/28 09:38:47;;;;;;;5.00;4.50;;;27.30;80.90;;;;;;4975218;28;21004;-67
2021/09/28 09:41:15;;;;;;;4.83;4.37;;;28.00;80.90;;;;;;4975093;28;20485;-67
2021/09/28 09:43:43;;;;;;;7.60;4.37;;;28.70;75.20;;;;;;4975431;28;20461;-70
2021/09/28 09:46:11;;;;;;;7.90;4.90;;;29.30;76.40;;;;;;4975557;28;20956;-70
2021/09/28 09:48:39;;;;;;;7.03;4.73;;;29.50;70.50;;;;;;4974850;28;20475;-70
2021/09/28 09:51:08;;;;;;;7.20;4.80;;;29.40;70.60;;;;;;4974770;28;20475;-70
2021/09/28 09:53:37;;;;;;;5.50;5.00;;;29.20;71.30;;;;;;4974952;28;20839;-67
2021/09/28 09:56:04;;;;;;;6.03;5.00;;;28.40;71.60;;;;;;4974979;28;20454;-67
2021/09/28 09:58:32;;;;;;;5.23;4.73;;;26.90;74.20;;;;;;4974787;28;20454;-68
2021/09/28 10:00:59;;;;;;;7.33;5.97;;;25.30;78.30;;;;;;4974710;28;20494;-69
2021/09/28 10:03:27;;;;;;;7.70;5.67;;;24.30;85.70;;;;;;4975526;28;20465;-70
2021/09/28 10:05:54;;;;;;;6.17;5.07;;;24.60;85.80;;;;;;4978379;28;20460;-68
2021/09/28 10:08:21;;;;;;;5.50;4.07;;;25.80;82.20;;;;;;4978282;28;20478;-67
2021/09/28 10:10:56;;;;;;;6.10;4.50;;;26.90;81.60;;;;;;4978389;28;20474;-67
2021/09/28 10:13:47;;;;;;;5.17;4.40;;;27.20;77.80;;;;;;4978426;28;20514;-68
2021/09/28 10:16:44;;;;;;;6.60;4.73;;;26.60;73.60;;;;;;4978485;28;20458;-69
2021/09/28 10:19:56;;;;;;;7.07;5.30;;;25.80;79.10;;;;;;4899582;29;20442;-69
2021/09/28 10:22:48;;;;;;;4.50;4.10;;;26.10;76.30;;;;;;4978040;28;20499;-65
2021/09/28 10:25:45;;;;;;;3.90;3.57;;;26.90;71.90;;;;;;4977974;28;20439;-65
2021/09/28 10:28:40;;;;;;;4.23;3.83;;;27.00;77.90;;;;;;4977827;28;20477;-65
2021/09/28 10:31:14;;;;;;;4.87;3.53;;;26.80;75.70;;;;;;4977839;28;20926;-65
2021/09/28 10:33:53;;;;;;;6.93;5.00;;;26.90;76.10;;;;;;4977480;28;20446;-67
2021/09/28 10:36:23;;;;;;;6.50;3.43;;;26.70;77.10;;;;;;4977877;28;20501;-67
2021/09/28 10:38:58;;;;;;;4.83;4.33;;;26.80;76.60;;;;;;4977786;28;20439;-66
2021/09/28 10:41:43;;;;;;;7.63;5.90;;;25.80;76.40;;;;;;4978034;28;20565;-66
2021/09/28 10:44:39;;;;;;;9.90;5.40;;;23.60;81.40;;;;;;4977923;28;20521;-66
2021/09/28 10:47:09;;;;;;;5.47;4.97;;;23.50;88.10;;;;;;4978427;28;20434;-66
2021/09/28 10:49:37;;;;;;;5.67;4.50;;;23.10;86.20;;;;;;4977314;28;21013;-66
2021/09/28 10:52:38;;;;;;;5.70;5.20;;;22.40;85.80;;;;;;4977480;28;20482;-66
2021/09/28 10:55:30;;;;;;;6.53;5.10;;;21.90;86.80;;;;;;4977457;28;20458;-66
2021/09/28 10:58:09;;;;;;;8.00;5.97;;;21.10;90.30;;;;;;4977430;28;20431;-66
2021/09/28 11:01:06;;;;;;;5.87;5.00;;;20.60;91.20;;;;;;4977441;28;20521;-66
2021/09/28 11:04:02;;;;;;;6.07;4.63;;;20.50;91.70;;;;;;4977103;28;20490;-66
2021/09/28 11:07:03;;;;;;;6.13;5.53;;;21.10;93.40;;;;;;4977113;28;20445;-66
2021/09/28 11:09:51;;;;;;;8.50;4.90;;;21.70;93.40;;;;;;4977159;28;20594;-68
2021/09/28 11:12:21;;;;;;;9.93;5.90;;;21.80;92.30;;;;;;4976573;28;20475;-66
2021/09/28 11:14:48;;;;;;;5.73;5.20;;;22.30;94.00;;;;;;4975870;28;20459;-67
2021/09/28 11:17:18;;;;;;;6.30;5.70;;;22.90;90.30;;;;;;4977165;28;20459;-66
2021/09/28 11:19:46;;;;;;;7.00;6.40;;;23.20;86.30;;;;;;4977118;28;20461;-67
2021/09/28 11:22:23;;;;;;;5.40;4.90;;;22.60;88.80;;;;;;4976713;28;21048;-66
2021/09/28 11:24:50;;;;;;;6.67;6.10;;;23.10;88.70;;;;;;4976979;28;20442;-66
2021/09/28 11:27:18;;;;;;;6.27;5.67;;;23.50;87.00;;;;;;4977118;28;20454;-66
2021/09/28 11:29:45;;;;;;;6.93;6.23;;;23.30;88.30;;;;;;4976694;28;20475;-66
2021/09/28 11:32:12;;;;;;;7.13;6.53;;;23.50;84.90;;;;;;4976708;28;20554;-68
2021/09/28 11:34:42;;;;;;;6.60;6.00;;;23.80;86.10;;;;;;4976926;28;20824;-67
2021/09/28 11:37:10;;;;;;;7.60;6.90;;;24.10;84.20;;;;;;4977027;28;20858;-70
2021/09/28 11:39:41;;;;;;;9.30;6.77;;;24.20;83.70;;;;;;4977340;28;20539;-70
2021/09/28 11:42:10;;;;;;;7.10;5.40;;;24.50;87.70;;;;;;4976658;28;20478;-70
2021/09/28 11:44:42;;;;;;;8.00;7.30;;;24.50;83.40;;;;;;4976940;28;20443;-70
2021/09/28 11:47:19;;;;;;;7.10;6.50;;;24.40;83.30;;;;;;4976762;28;20450;-70
2021/09/28 11:49:54;;;;;;;6.90;6.40;;;24.00;84.00;;;;;;4976350;28;20969;-69
2021/09/28 11:52:22;;;;;;;7.00;6.50;;;24.10;86.40;;;;;;4976786;28;20481;-70
2021/09/28 11:54:51;;;;;;;6.50;5.90;;;23.80;83.60;;;;;;4977345;28;20438;-69
2021/09/28 11:57:18;;;;;;;6.63;5.93;;;23.60;87.60;;;;;;4976473;28;20439;-70
2021/09/28 11:59:45;;;;;;;7.13;6.53;;;23.50;84.60;;;;;;4976735;28;20439;-70
2021/09/28 12:02:15;;;;;;;8.13;7.30;;;23.40;86.20;;;;;;4976399;28;20488;-69
2021/09/28 12:10:24;;;;;;;7.17;6.57;;;22.00;89.90;;;;;;4976452;28;20425;-69
2021/09/28 12:12:51;;;;;;;8.57;7.20;;;22.00;90.20;;;;;;4976256;28;20457;-69
2021/09/28 12:15:18;;;;;;;10.80;6.70;;;21.80;90.30;;;;;;4976245;28;20466;-69
2021/09/28 12:17:46;;;;;;;7.33;6.60;;;22.00;91.00;;;;;;4976105;28;20454;-69
2021/09/28 12:20:15;;;;;;;7.80;6.47;;;21.60;91.10;;;;;;4976283;28;20454;-69
2021/09/28 12:22:47;;;;;;;6.57;5.97;;;21.90;90.90;;;;;;4976491;28;20454;-69
2021/09/28 12:25:18;;;;;;;11.63;6.70;;;21.90;90.30;;;;;;4976584;28;20439;-69
2021/09/28 12:27:54;;;;;;;7.27;6.67;;;21.30;90.20;;;;;;4976321;28;20439;-68
2021/09/28 12:30:21;;;;;;;6.83;5.67;;;21.80;90.20;;;;;;4976072;28;20514;-68
2021/09/28 12:32:49;;;;;;;7.30;6.70;;;22.30;88.00;;;;;;4975978;28;20456;-70
2021/09/28 12:35:25;;;;;;;7.53;5.80;;;22.20;89.60;;;;;;4976361;28;20458;-69
2021/09/28 12:37:57;;;;;;;7.30;6.80;;;22.30;88.10;;;;;;4976134;28;20474;-70
2021/09/28 12:40:25;;;;;;;7.47;6.70;;;22.50;85.50;;;;;;4976088;28;20498;-70
2021/09/28 12:43:02;;;;;;;9.07;6.80;;;22.50;84.00;;;;;;4976363;28;20455;-70
2021/09/28 12:45:30;;;;;;;6.77;6.13;;;22.50;85.00;;;;;;4975875;28;20911;-71
2021/09/28 12:47:58;;;;;;;6.50;5.93;;;22.40;82.60;;;;;;4975862;28;20458;-71
2021/09/28 12:50:27;;;;;;;6.73;5.90;;;22.40;85.80;;;;;;4975836;28;20467;-71
2021/09/28 12:52:59;;;;;;;8.03;7.33;;;22.60;90.70;;;;;;4975798;28;20455;-72
2021/09/28 12:55:27;;;;;;;6.87;6.37;;;22.60;89.70;;;;;;4975935;28;20442;-71
2021/09/28 12:57:54;;;;;;;8.27;6.87;;;22.50;90.80;;;;;;4976090;28;20517;-72
2021/09/28 13:00:21;;;;;;;6.60;6.00;;;22.50;91.10;;;;;;4975183;28;20661;-71
2021/09/28 13:02:49;;;;;;;6.80;5.97;;;22.60;89.70;;;;;;4975102;28;20446;-71
2021/09/28 13:05:21;;;;;;;5.73;5.23;;;22.50;90.40;;;;;;4975802;28;20494;-70
2021/09/28 13:07:49;;;;;;;6.10;5.70;;;22.50;88.60;;;;;;4975439;28;20884;-66
2021/09/28 13:10:18;;;;;;;7.93;5.47;;;22.50;90.10;;;;;;4975983;28;20486;-68
2021/09/28 13:12:46;;;;;;;5.77;5.27;;;22.60;88.20;;;;;;4975804;28;20455;-68
2021/09/28 13:15:14;;;;;;;6.50;5.40;;;22.80;89.10;;;;;;4975008;28;20545;-68
2021/09/28 13:17:41;;;;;;;5.17;4.70;;;22.80;88.60;;;;;;4975121;28;20869;-68
2021/09/28 13:20:10;;;;;;;4.70;4.33;;;22.60;84.90;;;;;;4975272;28;20455;-68
2021/09/28 13:22:37;;;;;;;7.20;5.13;;;22.60;86.50;;;;;;4975075;28;20996;-68
2021/09/28 13:25:05;;;;;;;5.13;4.53;;;22.30;87.20;;;;;;4975420;28;20462;-68
2021/09/28 13:27:34;;;;;;;4.83;4.00;;;22.40;88.30;;;;;;4975391;28;20455;-68
2021/09/28 13:30:01;;;;;;;4.63;4.23;;;22.50;89.10;;;;;;4975468;28;20483;-68
2021/09/28 13:32:27;;;;;;;4.73;4.33;;;22.60;87.20;;;;;;4975485;28;20497;-68
2021/09/28 13:34:55;;;;;;;4.50;4.10;;;22.00;86.60;;;;;;4975266;28;20462;-68
2021/09/28 13:37:23;;;;;;;5.97;5.03;;;22.20;89.00;;;;;;4975202;28;20486;-69
2021/09/28 13:39:49;;;;;;;4.53;4.13;;;22.30;88.50;;;;;;4978445;28;20450;-68
2021/09/28 13:42:16;;;;;;;4.57;3.80;;;22.30;89.80;;;;;;4979013;28;20478;-68
2021/09/28 13:44:44;;;;;;;5.97;4.60;;;22.30;86.90;;;;;;4979078;28;20463;-68
2021/09/28 13:47:11;;;;;;;4.30;3.80;;;22.10;86.60;;;;;;4979122;28;20454;-69
2021/09/28 13:49:37;;;;;;;4.50;3.93;;;22.20;89.40;;;;;;4978960;28;20478;-69
2021/09/28 13:52:06;;;;;;;4.17;3.30;;;21.80;86.90;;;;;;4978671;28;20478;-69
2021/09/28 13:54:32;;;;;;;6.87;4.17;;;21.80;87.20;;;;;;4979115;28;20501;-69
2021/09/28 13:56:59;;;;;;;4.50;3.60;;;21.80;88.60;;;;;;4978455;28;20462;-69
2021/09/28 13:59:26;;;;;;;4.70;3.20;;;21.70;87.40;;;;;;4979472;28;20446;-69
2021/09/28 14:01:54;;;;;;;4.10;3.73;;;21.90;88.40;;;;;;4978707;28;20489;-69
2021/09/28 14:04:21;;;;;;;4.53;3.20;;;21.70;86.50;;;;;;4978941;28;20976;-69
2021/09/28 14:06:48;;;;;;;3.30;2.97;;;21.50;89.40;;;;;;4978743;28;20458;-69
2021/09/28 14:09:15;;;;;;;5.13;2.80;;;21.60;88.70;;;;;;4979380;28;20493;-69
2021/09/28 14:11:41;;;;;;;3.17;2.87;;;21.70;87.20;;;;;;4978384;28;20482;-69
2021/09/28 14:14:08;;;;;;;6.73;2.93;;;21.80;90.60;;;;;;4978804;28;20818;-69
2021/09/28 14:16:35;;;;;;;4.30;3.10;;;21.60;90.10;;;;;;4978695;28;20532;-69
2021/09/28 14:19:03;;;;;;;3.17;2.70;;;21.60;91.30;;;;;;4978480;28;20450;-69
2021/09/28 14:21:29;;;;;;;6.40;3.00;;;21.30;89.20;;;;;;4978285;28;20482;-69
2021/09/28 14:23:56;;;;;;;3.43;3.13;;;21.20;90.10;;;;;;4977843;28;20795;-69
2021/09/28 14:26:23;;;;;;;3.20;3.00;;;21.20;91.20;;;;;;4978672;28;20517;-69
2021/09/28 14:28:50;;;;;;;2.80;2.60;;;21.40;92.20;;;;;;4978263;28;20459;-69
2021/09/28 14:31:17;;;;;;;2.93;2.63;;;21.40;91.30;;;;;;4978586;28;20474;-69
2021/09/28 14:33:43;;;;;;;3.80;3.07;;;21.30;90.60;;;;;;4979494;28;20467;-68
2021/09/28 14:36:12;;;;;;;2.93;2.73;;;21.30;91.10;;;;;;4979330;28;20822;-67
2021/09/28 14:38:38;;;;;;;3.30;3.00;;;21.20;91.40;;;;;;4978771;28;20970;-67
2021/09/28 14:41:06;;;;;;;4.07;2.63;;;21.20;90.90;;;;;;4978493;28;20471;-67
2021/09/28 14:43:33;;;;;;;3.27;2.80;;;21.30;90.10;;;;;;4979459;28;20459;-67
2021/09/28 14:46:00;;;;;;;2.97;2.73;;;21.40;89.50;;;;;;4978432;28;20458;-71
2021/09/28 14:48:27;;;;;;;5.50;2.87;;;21.20;88.20;;;;;;4978618;28;20462;-69
2021/09/28 14:50:53;;;;;;;3.83;2.87;;;21.30;90.30;;;;;;4978974;28;20557;-67
2021/09/28 14:53:21;;;;;;;3.23;2.97;;;21.30;90.00;;;;;;4978530;28;20455;-67
2021/09/28 14:55:49;;;;;;;3.20;3.00;;;21.30;90.70;;;;;;4977771;28;20939;-67
2021/09/28 14:58:15;;;;;;;3.97;3.00;;;21.10;90.40;;;;;;4977761;28;20462;-67
2021/09/28 15:00:42;;;;;;;6.27;2.90;;;21.20;91.30;;;;;;4977668;28;20482;-67
2021/09/28 15:03:09;;;;;;;4.37;2.93;;;20.90;91.70;;;;;;4977924;28;20443;-67
2021/09/28 15:05:36;;;;;;;4.50;2.70;;;21.00;91.80;;;;;;4978021;28;20450;-67
2021/09/28 15:08:03;;;;;;;2.27;2.17;;;21.10;91.60;;;;;;4977895;28;20455;-67
2021/09/28 15:10:31;;;;;;;2.80;2.60;;;21.20;91.70;;;;;;4977554;28;20497;-68
2021/09/28 15:12:58;;;;;;;6.53;3.20;;;21.00;91.30;;;;;;4977493;28;20443;-67
2021/09/28 15:15:25;;;;;;;2.80;2.60;;;20.80;91.40;;;;;;4977655;28;20454;-67
2021/09/28 15:17:51;;;;;;;3.23;2.77;;;20.50;91.60;;;;;;4978090;28;20458;-67
2021/09/28 15:20:19;;;;;;;2.80;2.50;;;20.50;91.40;;;;;;4977078;28;20938;-68
2021/09/28 15:22:46;;;;;;;2.97;2.70;;;20.40;92.30;;;;;;4977327;28;20451;-67
2021/09/28 15:25:13;;;;;;;6.20;2.53;;;20.40;92.40;;;;;;4977337;28;20451;-67
2021/09/28 15:27:43;;;;;;;3.37;3.17;;;20.40;93.20;;;;;;4977032;28;20455;-67
2021/09/28 15:30:12;;;;;;;3.70;2.40;;;20.40;92.20;;;;;;4976974;28;20482;-68
2021/09/28 15:32:39;;;;;;;2.63;2.43;;;20.40;92.20;;;;;;4977066;28;20486;-69
2021/09/28 15:35:09;;;;;;;5.53;2.80;;;20.40;92.40;;;;;;4977028;28;20454;-69
2021/09/28 15:37:36;;;;;;;3.97;2.77;;;20.20;92.70;;;;;;4977188;28;20465;-69
2021/09/28 15:40:03;;;;;;;2.73;2.50;;;20.30;93.10;;;;;;4977414;28;20465;-71
2021/09/28 15:42:30;;;;;;;4.33;2.43;;;20.20;92.70;;;;;;4976550;28;20837;-71
2021/09/28 15:44:59;;;;;;;3.20;2.60;;;20.20;93.70;;;;;;4976841;28;20463;-72
2021/09/28 15:47:26;;;;;;;5.17;2.83;;;20.10;93.40;;;;;;4976413;28;20810;-71
2021/09/28 15:49:53;;;;;;;2.80;2.60;;;19.90;93.30;;;;;;4976583;28;20482;-70
2021/09/28 15:52:20;;;;;;;3.77;3.47;;;19.90;92.20;;;;;;4977274;28;20478;-70
2021/09/28 15:54:47;;;;;;;4.50;4.10;;;19.90;92.60;;;;;;4976838;28;20811;-70
2021/09/28 15:57:14;;;;;;;8.10;4.67;;;20.00;93.10;;;;;;4976582;28;20462;-70
2021/09/28 15:59:40;;;;;;;3.57;3.27;;;20.00;94.10;;;;;;4976625;28;20938;-70
2021/09/28 16:02:09;;;;;;;6.37;3.67;;;20.00;94.10;;;;;;4976101;28;20557;-70
2021/09/28 16:04:36;;;;;;;4.47;3.30;;;19.90;94.00;;;;;;4976471;28;20835;-70
2021/09/28 16:07:03;;;;;;;3.33;2.97;;;19.80;93.80;;;;;;4977587;28;20465;-70
2021/09/28 16:09:30;;;;;;;4.00;2.47;;;19.70;94.60;;;;;;4975964;28;20462;-70
2021/09/28 16:11:56;;;;;;;4.53;3.47;;;19.50;94.20;;;;;;4976162;28;20569;-70
2021/09/28 16:14:23;;;;;;;5.53;3.17;;;19.50;94.50;;;;;;4975954;28;20466;-70
2021/09/28 16:16:50;;;;;;;3.90;3.17;;;19.50;94.30;;;;;;4976029;28;20466;-71
2021/09/28 16:19:18;;;;;;;3.30;3.00;;;19.40;94.40;;;;;;4975863;28;20455;-69
2021/09/28 16:21:44;;;;;;;2.83;2.60;;;19.30;95.10;;;;;;4975790;28;20478;-71
2021/09/28 16:24:11;;;;;;;5.13;3.53;;;19.30;95.30;;;;;;4975972;28;20469;-70
2021/09/28 16:26:38;;;;;;;4.10;3.60;;;19.20;95.70;;;;;;4976105;28;20462;-70
2021/09/28 16:29:05;;;;;;;4.20;3.33;;;19.20;95.50;;;;;;4976021;28;20447;-69
2021/09/28 16:31:31;;;;;;;4.03;3.37;;;19.10;95.80;;;;;;4975574;28;20510;-69
2021/09/28 16:33:58;;;;;;;5.83;3.60;;;19.00;96.10;;;;;;4975704;28;20459;-69
2021/09/28 16:36:26;;;;;;;5.13;4.17;;;18.90;96.70;;;;;;4975779;28;20459;-69
2021/09/28 16:38:53;;;;;;;3.70;3.10;;;18.90;96.60;;;;;;4975671;28;20459;-70
2021/09/28 16:41:22;;;;;;;5.30;3.60;;;18.80;97.00;;;;;;4976033;28;20474;-70
2021/09/28 16:43:51;;;;;;;4.93;3.20;;;18.70;96.90;;;;;;4975654;28;20454;-70
2021/09/28 16:46:18;;;;;;;4.10;3.60;;;18.60;98.20;;;;;;4975828;28;20455;-70
2021/09/28 16:48:46;;;;;;;3.20;3.00;;;18.60;98.00;;;;;;4975740;28;20836;-68
2021/09/28 16:51:16;;;;;;;3.77;2.50;;;18.60;97.80;;;;;;4975562;28;20487;-68
2021/09/28 16:53:45;;;;;;;3.20;2.90;;;18.50;98.00;;;;;;4975854;28;20459;-68
2021/09/28 16:56:13;;;;;;;3.43;3.07;;;18.40;99.10;;;;;;4975875;28;20451;-67
2021/09/28 16:58:40;;;;;;;3.20;2.90;;;18.40;99.30;;;;;;4975325;28;20460;-67
2021/09/28 17:01:07;;;;;;;3.30;3.00;;;18.30;99.90;;;;;;4975407;28;20478;-68
2021/09/28 17:03:34;;;;;;;3.40;3.07;;;18.30;99.80;;;;;;4975530;28;20462;-67